createdAt,value
2022-10-05T00:04:44.716Z,100.00
2022-10-05T00:09:48.642Z,100.00
2022-10-05T00:14:51.377Z,100.00
2022-10-05T00:19:53.856Z,100.00
2022-10-05T00:24:56.352Z,100.00
2022-10-05T00:29:58.714Z,100.00
2022-10-05T00:35:00.011Z,100.00
2022-10-05T00:40:02.052Z,100.00
2022-10-05T00:45:03.390Z,100.00
2022-10-05T00:50:04.675Z,100.00
2022-10-05T00:55:27.018Z,100.00
2022-10-05T01:00:28.500Z,100.00
2022-10-05T01:05:47.992Z,100.00
2022-10-05T01:11:03.793Z,100.00
2022-10-05T01:16:08.313Z,100.00
2022-10-05T01:21:12.756Z,100.00
2022-10-05T01:26:33.030Z,100.00
2022-10-05T01:31:34.343Z,100.00
2022-10-05T01:36:35.687Z,100.00
2022-10-05T01:41:56.095Z,100.00
2022-10-05T01:47:03.686Z,100.00
2022-10-05T01:52:23.480Z,100.00
2022-10-05T01:57:33.870Z,100.00
2022-10-05T02:02:38.451Z,100.00
2022-10-05T02:07:49.222Z,100.00
2022-10-05T02:12:53.655Z,100.00
2022-10-05T02:18:02.469Z,100.00
2022-10-05T02:23:06.046Z,100.00
2022-10-05T02:28:16.635Z,100.00
2022-10-05T02:33:23.437Z,100.00
2022-10-05T02:38:43.278Z,100.00
2022-10-05T02:44:03.977Z,100.00
2022-10-05T02:49:25.555Z,100.00
2022-10-05T02:54:50.131Z,100.00
2022-10-05T02:59:59.278Z,100.00
2022-10-05T03:05:00.631Z,100.00
2022-10-05T03:10:08.178Z,100.00
2022-10-05T03:15:27.646Z,100.00
2022-10-05T03:20:40.898Z,100.00
2022-10-05T03:26:02.456Z,100.00
2022-10-05T03:31:22.694Z,100.00
2022-10-05T03:36:31.765Z,100.00
2022-10-05T03:41:38.810Z,100.00
2022-10-05T03:46:49.905Z,100.00
2022-10-05T03:52:00.882Z,100.00
2022-10-05T03:57:07.712Z,100.00
2022-10-05T04:02:22.081Z,100.00
2022-10-05T04:07:32.409Z,100.00
2022-10-05T04:12:36.858Z,100.00
2022-10-05T04:17:40.536Z,100.00
2022-10-05T04:22:46.106Z,100.00
2022-10-05T04:27:50.901Z,100.00
2022-10-05T04:32:53.226Z,100.00
2022-10-05T04:38:06.584Z,100.00
2022-10-05T04:43:13.062Z,100.00
2022-10-05T04:48:33.214Z,100.00
2022-10-05T04:53:48.340Z,100.00
2022-10-05T04:59:01.871Z,100.00
2022-10-05T05:04:12.394Z,100.00
2022-10-05T05:09:23.664Z,100.00
2022-10-05T05:14:43.976Z,100.00
2022-10-05T05:20:11.425Z,100.00
2022-10-05T05:25:30.850Z,100.00
2022-10-05T05:30:58.681Z,100.00
2022-10-05T05:36:06.249Z,100.00
2022-10-05T05:41:22.536Z,100.00
2022-10-05T05:46:39.120Z,100.00
2022-10-05T05:51:52.329Z,100.00
2022-10-05T05:57:10.834Z,100.00
2022-10-05T06:02:15.449Z,100.00
2022-10-05T06:07:20.012Z,100.00
2022-10-05T06:12:22.810Z,100.00
2022-10-05T06:17:26.831Z,100.00
2022-10-05T06:22:32.996Z,100.00
2022-10-05T06:27:38.254Z,100.00
2022-10-05T06:33:01.282Z,100.00
2022-10-05T06:38:14.998Z,100.00
2022-10-05T06:43:31.136Z,97.01
2022-10-05T06:48:51.181Z,94.83
2022-10-05T06:54:00.870Z,86.14
2022-10-05T06:59:09.704Z,89.90
2022-10-05T07:04:11.038Z,99.50
2022-10-05T07:09:30.507Z,100.00
2022-10-05T07:14:58.402Z,100.00
2022-10-05T07:20:15.081Z,100.00
2022-10-05T07:25:21.062Z,97.70
2022-10-05T07:30:22.500Z,90.74
2022-10-05T07:36:03.577Z,85.71
2022-10-05T07:41:10.947Z,86.02
2022-10-05T07:46:18.268Z,82.56
2022-10-05T07:51:29.187Z,82.43
2022-10-05T07:56:36.596Z,76.21
2022-10-05T08:01:41.063Z,74.11
2022-10-05T08:06:45.919Z,69.85
2022-10-05T08:11:53.303Z,72.05
2022-10-05T08:16:57.674Z,69.18
2022-10-05T08:22:02.917Z,68.78
2022-10-05T08:27:23.085Z,66.79
2022-10-05T08:32:29.485Z,66.96
2022-10-05T08:37:35.775Z,65.40
2022-10-05T08:42:44.573Z,65.03
2022-10-05T08:48:04.762Z,61.56
2022-10-05T08:53:21.924Z,64.38
2022-10-05T08:58:36.541Z,63.52
2022-10-05T09:03:37.834Z,62.40
2022-10-05T09:08:47.902Z,58.76
2022-10-05T09:14:12.510Z,58.83
2022-10-05T09:19:32.705Z,57.18
2022-10-05T09:24:49.359Z,61.00
2022-10-05T09:30:02.535Z,59.05
2022-10-05T09:35:21.030Z,57.09
2022-10-05T09:40:41.504Z,56.54
2022-10-05T09:46:01.890Z,55.57
2022-10-05T09:51:16.836Z,55.19
2022-10-05T09:56:21.094Z,54.11
2022-10-05T10:01:51.620Z,52.73
2022-10-05T10:06:56.402Z,54.89
2022-10-05T10:12:16.539Z,49.28
2022-10-05T10:17:17.837Z,48.62
2022-10-05T10:22:50.065Z,44.43
2022-10-05T10:27:57.247Z,46.67
2022-10-05T10:33:11.249Z,43.45
2022-10-05T10:38:30.965Z,44.64
2022-10-05T10:43:35.409Z,44.21
2022-10-05T10:48:55.571Z,44.75
2022-10-05T10:54:15.667Z,44.20
2022-10-05T10:59:29.257Z,43.22
2022-10-05T11:04:35.734Z,42.99
2022-10-05T11:10:12.375Z,41.92
2022-10-05T11:15:25.500Z,39.72
2022-10-05T11:20:56.080Z,41.98
2022-10-05T11:26:12.264Z,43.16
2022-10-05T11:31:42.962Z,44.02
2022-10-05T11:36:55.566Z,44.70
2022-10-05T11:42:19.892Z,44.85
2022-10-05T11:47:35.506Z,43.68
2022-10-05T11:52:39.680Z,44.16
2022-10-05T11:57:52.797Z,45.08
2022-10-05T12:03:06.917Z,44.90
2022-10-05T12:08:24.088Z,47.96
2022-10-05T12:13:34.479Z,46.38
2022-10-05T12:18:39.247Z,47.34
2022-10-05T12:23:50.404Z,48.71
2022-10-05T12:28:55.520Z,47.46
2022-10-05T12:33:56.811Z,49.40
2022-10-05T12:39:18.357Z,48.83
2022-10-05T12:44:39.714Z,49.22
2022-10-05T12:50:13.424Z,49.91
2022-10-05T12:55:26.125Z,51.50
2022-10-05T13:00:32.017Z,51.42
2022-10-05T13:05:44.823Z,52.74
2022-10-05T13:10:48.282Z,53.54
2022-10-05T13:15:52.335Z,56.18
2022-10-05T13:20:56.464Z,55.61
2022-10-05T13:26:08.869Z,55.37
2022-10-05T13:31:18.550Z,54.89
2022-10-05T13:36:35.487Z,54.44
2022-10-05T13:41:55.637Z,54.16
2022-10-05T13:47:16.859Z,53.67
2022-10-05T13:52:29.235Z,55.64
2022-10-05T13:58:05.769Z,54.63
2022-10-05T14:03:22.870Z,55.05
2022-10-05T14:08:32.899Z,56.81
2022-10-05T14:13:44.446Z,57.23
2022-10-05T14:18:58.962Z,58.07
2022-10-05T14:24:32.257Z,60.03
2022-10-05T14:29:39.383Z,61.36
2022-10-05T14:34:45.063Z,63.24
2022-10-05T14:39:48.347Z,65.93
2022-10-05T14:45:00.164Z,67.46
2022-10-05T14:50:13.880Z,67.92
2022-10-05T14:55:26.208Z,68.97
2022-10-05T15:00:28.809Z,69.02
2022-10-05T15:05:31.490Z,69.52
2022-10-05T15:10:43.708Z,69.75
2022-10-05T15:15:54.624Z,70.98
2022-10-05T15:21:22.524Z,71.21
2022-10-05T15:26:40.319Z,71.91
2022-10-05T15:31:50.658Z,71.68
2022-10-05T15:36:51.953Z,72.18
2022-10-05T15:42:00.280Z,72.08
2022-10-05T15:47:10.332Z,72.36
2022-10-05T15:52:27.640Z,73.26
2022-10-05T15:57:41.089Z,72.94
2022-10-05T16:02:54.557Z,72.20
2022-10-05T16:08:14.605Z,72.74
2022-10-05T16:13:34.637Z,73.73
2022-10-05T16:18:51.308Z,75.18
2022-10-05T16:23:55.695Z,76.21
2022-10-05T16:29:02.595Z,76.99
2022-10-05T16:34:23.260Z,78.32
2022-10-05T16:39:27.295Z,79.25
2022-10-05T16:44:31.700Z,79.01
2022-10-05T16:49:42.506Z,79.89
2022-10-05T16:54:48.163Z,78.58
2022-10-05T16:59:55.540Z,78.12
2022-10-05T17:05:06.029Z,78.32
2022-10-05T17:10:07.316Z,78.46
2022-10-05T17:15:10.161Z,79.50
2022-10-05T17:20:23.616Z,79.44
2022-10-05T17:25:34.226Z,80.33
2022-10-05T17:30:38.995Z,85.50
2022-10-05T17:35:40.307Z,88.27
2022-10-05T17:41:03.105Z,90.32
2022-10-05T17:46:06.809Z,92.29
2022-10-05T17:51:56.005Z,93.63
2022-10-05T17:56:57.297Z,95.74
2022-10-05T18:02:19.453Z,96.73
2022-10-05T18:07:22.933Z,99.09
2022-10-05T18:12:25.943Z,99.35
2022-10-05T18:17:44.112Z,100.00
2022-10-05T18:22:46.693Z,99.93
2022-10-05T18:28:07.858Z,100.00
2022-10-05T18:33:28.072Z,100.00
2022-10-05T18:38:51.225Z,100.00
2022-10-05T18:44:00.890Z,99.16
2022-10-05T18:49:04.979Z,99.71
2022-10-05T18:54:09.400Z,100.00
2022-10-05T18:59:29.430Z,100.00
2022-10-05T19:04:30.721Z,100.00
2022-10-05T19:09:32.002Z,100.00
2022-10-05T19:14:56.554Z,100.00
2022-10-05T19:20:07.048Z,100.00
2022-10-05T19:25:08.418Z,100.00
2022-10-05T19:30:30.103Z,100.00
2022-10-05T19:35:34.517Z,100.00
2022-10-05T19:40:44.003Z,100.00
2022-10-05T19:45:54.307Z,100.00
2022-10-05T19:50:57.544Z,100.00
2022-10-05T19:56:15.643Z,100.00
2022-10-05T20:01:24.380Z,100.00
2022-10-05T20:06:26.918Z,100.00
2022-10-05T20:11:28.526Z,100.00
2022-10-05T20:16:52.746Z,100.00
2022-10-05T20:22:00.382Z,100.00
2022-10-05T20:27:04.800Z,100.00
2022-10-05T20:32:11.052Z,100.00
2022-10-05T20:37:13.505Z,100.00
2022-10-05T20:42:14.836Z,100.00
2022-10-05T20:47:16.288Z,100.00
2022-10-05T20:52:17.594Z,100.00
2022-10-05T20:57:20.865Z,100.00
2022-10-05T21:02:22.256Z,100.00
2022-10-05T21:07:25.721Z,100.00
2022-10-05T21:12:27.170Z,96.04
2022-10-05T21:17:28.513Z,91.68
2022-10-05T21:22:29.998Z,87.97
2022-10-05T21:27:31.398Z,87.25
2022-10-05T21:32:32.743Z,86.63
2022-10-05T21:37:34.080Z,86.93
2022-10-05T21:42:35.427Z,87.25
2022-10-05T21:47:36.858Z,85.95
2022-10-05T21:52:38.236Z,85.06
2022-10-05T21:57:40.515Z,85.20
2022-10-05T22:02:41.840Z,85.11
2022-10-05T22:07:43.144Z,86.84
2022-10-05T22:12:46.756Z,86.56
2022-10-05T22:17:48.262Z,87.94
2022-10-05T22:22:49.642Z,87.10
2022-10-05T22:27:51.155Z,86.17
2022-10-05T22:32:52.482Z,84.67
2022-10-05T22:37:53.783Z,85.35
2022-10-05T22:42:55.113Z,84.83
2022-10-05T22:47:56.435Z,85.88
2022-10-05T22:52:57.735Z,85.66
2022-10-05T22:57:59.043Z,85.95
2022-10-05T23:03:00.344Z,86.16
2022-10-05T23:08:02.202Z,85.39
2022-10-05T23:13:04.911Z,85.11
2022-10-05T23:18:06.222Z,85.78
2022-10-05T23:23:07.523Z,90.12
2022-10-05T23:28:08.870Z,97.99
2022-10-05T23:33:10.319Z,100.00
2022-10-05T23:38:11.621Z,100.00
2022-10-05T23:43:13.077Z,100.00
2022-10-05T23:48:14.711Z,100.00
2022-10-05T23:53:16.988Z,100.00
2022-10-05T23:58:18.691Z,100.00
